sensor_id;sensor_type;location;lat;lon;timestamp;pressure;altitude;pressure_sealevel;temperature;humidity
51261;BME280;61705;46.228;24.812;2024-01-25T00:01:47;97659.50;;;-0.88;100.00
51261;BME280;61705;46.228;24.812;2024-01-25T00:04:14;97658.63;;;-0.86;100.00
51261;BME280;61705;46.228;24.812;2024-01-25T00:06:40;97661.25;;;-0.84;100.00
51261;BME280;61705;46.228;24.812;2024-01-25T00:09:07;97666.41;;;-0.86;100.00
51261;BME280;61705;46.228;24.812;2024-01-25T00:11:35;97660.38;;;-0.85;100.00
51261;BME280;61705;46.228;24.812;2024-01-25T00:14:02;97661.22;;;-0.87;100.00
51261;BME280;61705;46.228;24.812;2024-01-25T00:16:29;97658.63;;;-0.87;100.00
51261;BME280;61705;46.228;24.812;2024-01-25T00:18:56;97655.16;;;-0.86;100.00
51261;BME280;61705;46.228;24.812;2024-01-25T00:21:22;97652.56;;;-0.83;100.00
51261;BME280;61705;46.228;24.812;2024-01-25T00:23:49;97653.44;;;-0.84;100.00
51261;BME280;61705;46.228;24.812;2024-01-25T00:26:16;97666.44;;;-0.89;100.00
51261;BME280;61705;46.228;24.812;2024-01-25T00:28:42;97662.09;;;-0.91;100.00
51261;BME280;61705;46.228;24.812;2024-01-25T00:31:09;97672.47;;;-0.84;100.00
51261;BME280;61705;46.228;24.812;2024-01-25T00:33:36;97665.53;;;-0.86;100.00
51261;BME280;61705;46.228;24.812;2024-01-25T00:36:03;97660.34;;;-0.86;100.00
51261;BME280;61705;46.228;24.812;2024-01-25T00:38:30;97649.13;;;-0.88;100.00
51261;BME280;61705;46.228;24.812;2024-01-25T00:40:56;97641.34;;;-0.87;100.00
51261;BME280;61705;46.228;24.812;2024-01-25T00:43:23;97638.75;;;-0.88;100.00
51261;BME280;61705;46.228;24.812;2024-01-25T00:45:50;97643.06;;;-0.78;100.00
51261;BME280;61705;46.228;24.812;2024-01-25T00:48:17;97637.03;;;-0.85;100.00
51261;BME280;61705;46.228;24.812;2024-01-25T00:50:44;97629.22;;;-0.86;100.00
51261;BME280;61705;46.228;24.812;2024-01-25T00:53:11;97630.09;;;-0.81;100.00
51261;BME280;61705;46.228;24.812;2024-01-25T00:55:38;97630.09;;;-0.80;100.00
51261;BME280;61705;46.228;24.812;2024-01-25T00:58:05;97623.19;;;-0.84;100.00
51261;BME280;61705;46.228;24.812;2024-01-25T01:00:32;97630.09;;;-0.80;100.00
51261;BME280;61705;46.228;24.812;2024-01-25T01:02:59;97632.69;;;-0.83;100.00
51261;BME280;61705;46.228;24.812;2024-01-25T01:05:29;97612.78;;;-0.82;100.00
51261;BME280;61705;46.228;24.812;2024-01-25T01:07:56;97611.94;;;-0.86;100.00
51261;BME280;61705;46.228;24.812;2024-01-25T01:10:23;97603.31;;;-0.85;100.00
51261;BME280;61705;46.228;24.812;2024-01-25T01:12:50;97608.47;;;-0.77;100.00
51261;BME280;61705;46.228;24.812;2024-01-25T01:15:18;97591.19;;;-0.75;100.00
51261;BME280;61705;46.228;24.812;2024-01-25T01:17:45;97598.09;;;-0.80;100.00
51261;BME280;61705;46.228;24.812;2024-01-25T01:20:11;97597.25;;;-0.84;100.00
51261;BME280;61705;46.228;24.812;2024-01-25T01:22:38;97598.09;;;-0.83;100.00
51261;BME280;61705;46.228;24.812;2024-01-25T01:25:05;97601.56;;;-0.81;100.00
51261;BME280;61705;46.228;24.812;2024-01-25T01:27:32;97597.22;;;-0.82;100.00
51261;BME280;61705;46.228;24.812;2024-01-25T01:29:59;97597.25;;;-0.85;100.00
51261;BME280;61705;46.228;24.812;2024-01-25T01:32:25;97592.91;;;-0.80;100.00
51261;BME280;61705;46.228;24.812;2024-01-25T01:34:52;97592.91;;;-0.83;100.00
51261;BME280;61705;46.228;24.812;2024-01-25T01:37:19;97588.59;;;-0.77;100.00
51261;BME280;61705;46.228;24.812;2024-01-25T01:39:46;97596.38;;;-0.77;100.00
51261;BME280;61705;46.228;24.812;2024-01-25T01:42:16;97602.41;;;-0.70;100.00
51261;BME280;61705;46.228;24.812;2024-01-25T01:44:43;97608.47;;;-0.69;100.00
51261;BME280;61705;46.228;24.812;2024-01-25T01:47:10;97597.25;;;-0.78;100.00
51261;BME280;61705;46.228;24.812;2024-01-25T01:49:36;97600.69;;;-0.77;100.00
51261;BME280;61705;46.228;24.812;2024-01-25T01:52:03;97594.66;;;-0.78;100.00
51261;BME280;61705;46.228;24.812;2024-01-25T01:54:31;97595.50;;;-0.77;100.00
51261;BME280;61705;46.228;24.812;2024-01-25T01:56:58;97589.44;;;-0.73;100.00
51261;BME280;61705;46.228;24.812;2024-01-25T01:59:24;97587.72;;;-0.74;100.00
51261;BME280;61705;46.228;24.812;2024-01-25T02:01:52;97576.50;;;-0.78;100.00
51261;BME280;61705;46.228;24.812;2024-01-25T02:04:19;97566.97;;;-0.74;100.00
51261;BME280;61705;46.228;24.812;2024-01-25T02:06:45;97564.38;;;-0.74;100.00
51261;BME280;61705;46.228;24.812;2024-01-25T02:09:12;97555.72;;;-0.76;100.00
51261;BME280;61705;46.228;24.812;2024-01-25T02:11:39;97549.69;;;-0.75;100.00
51261;BME280;61705;46.228;24.812;2024-01-25T02:14:06;97546.19;;;-0.69;100.00
51261;BME280;61705;46.228;24.812;2024-01-25T02:16:37;97544.47;;;-0.67;100.00
51261;BME280;61705;46.228;24.812;2024-01-25T02:19:04;97544.44;;;-0.66;100.00
51261;BME280;61705;46.228;24.812;2024-01-25T02:21:30;97548.75;;;-0.63;100.00
51261;BME280;61705;46.228;24.812;2024-01-25T02:23:57;97550.47;;;-0.59;100.00
51261;BME280;61705;46.228;24.812;2024-01-25T02:26:24;97552.22;;;-0.60;100.00
51261;BME280;61705;46.228;24.812;2024-01-25T02:28:51;97545.31;;;-0.64;100.00
51261;BME280;61705;46.228;24.812;2024-01-25T02:31:20;97543.56;;;-0.63;100.00
51261;BME280;61705;46.228;24.812;2024-01-25T02:33:47;97549.63;;;-0.63;100.00
51261;BME280;61705;46.228;24.812;2024-01-25T02:36:15;97541.81;;;-0.57;100.00
51261;BME280;61705;46.228;24.812;2024-01-25T02:38:41;97546.13;;;-0.56;100.00
51261;BME280;61705;46.228;24.812;2024-01-25T02:41:08;97540.97;;;-0.57;100.00
51261;BME280;61705;46.228;24.812;2024-01-25T02:43:35;97539.22;;;-0.55;100.00
51261;BME280;61705;46.228;24.812;2024-01-25T02:46:01;97533.16;;;-0.51;100.00
51261;BME280;61705;46.228;24.812;2024-01-25T02:48:28;97532.25;;;-0.45;100.00
51261;BME280;61705;46.228;24.812;2024-01-25T02:50:55;97531.44;;;-0.51;100.00
51261;BME280;61705;46.228;24.812;2024-01-25T02:53:24;97530.56;;;-0.51;100.00
51261;BME280;61705;46.228;24.812;2024-01-25T02:55:54;97527.94;;;-0.50;100.00
51261;BME280;61705;46.228;24.812;2024-01-25T02:58:21;97539.19;;;-0.49;100.00
51261;BME280;61705;46.228;24.812;2024-01-25T03:00:50;97533.16;;;-0.50;100.00
51261;BME280;61705;46.228;24.812;2024-01-25T03:03:17;97529.66;;;-0.49;100.00
51261;BME280;61705;46.228;24.812;2024-01-25T03:05:44;97521.03;;;-0.47;100.00
51261;BME280;61705;46.228;24.812;2024-01-25T03:08:12;97518.44;;;-0.51;100.00
51261;BME280;61705;46.228;24.812;2024-01-25T03:10:39;97510.66;;;-0.51;100.00
51261;BME280;61705;46.228;24.812;2024-01-25T03:13:07;97515.84;;;-0.47;100.00
51261;BME280;61705;46.228;24.812;2024-01-25T03:15:34;97515.84;;;-0.44;100.00
51261;BME280;61705;46.228;24.812;2024-01-25T03:18:01;97511.50;;;-0.44;100.00
51261;BME280;61705;46.228;24.812;2024-01-25T03:20:28;97508.84;;;-0.38;100.00
51261;BME280;61705;46.228;24.812;2024-01-25T03:22:54;97512.34;;;-0.40;100.00
51261;BME280;61705;46.228;24.812;2024-01-25T03:25:23;97513.22;;;-0.40;100.00
51261;BME280;61705;46.228;24.812;2024-01-25T03:27:50;97500.22;;;-0.37;100.00
51261;BME280;61705;46.228;24.812;2024-01-25T03:30:17;97514.06;;;-0.39;100.00
51261;BME280;61705;46.228;24.812;2024-01-25T03:32:46;97504.53;;;-0.37;100.00
51261;BME280;61705;46.228;24.812;2024-01-25T03:35:13;97508.88;;;-0.36;100.00
51261;BME280;61705;46.228;24.812;2024-01-25T03:37:40;97502.81;;;-0.37;100.00
51261;BME280;61705;46.228;24.812;2024-01-25T03:40:08;97501.09;;;-0.39;100.00
51261;BME280;61705;46.228;24.812;2024-01-25T03:42:35;97495.06;;;-0.43;100.00
51261;BME280;61705;46.228;24.812;2024-01-25T03:45:04;97485.50;;;-0.36;100.00
51261;BME280;61705;46.228;24.812;2024-01-25T03:47:31;97485.53;;;-0.45;100.00
51261;BME280;61705;46.228;24.812;2024-01-25T03:49:58;97490.75;;;-0.50;100.00
51261;BME280;61705;46.228;24.812;2024-01-25T03:52:26;97489.03;;;-0.51;100.00
51261;BME280;61705;46.228;24.812;2024-01-25T03:54:56;97485.56;;;-0.50;100.00
51261;BME280;61705;46.228;24.812;2024-01-25T03:57:23;97492.50;;;-0.51;100.00
51261;BME280;61705;46.228;24.812;2024-01-25T03:59:50;97496.84;;;-0.54;100.00
51261;BME280;61705;46.228;24.812;2024-01-25T04:02:16;97489.03;;;-0.56;100.00
51261;BME280;61705;46.228;24.812;2024-01-25T04:04:43;97494.22;;;-0.51;100.00
51261;BME280;61705;46.228;24.812;2024-01-25T04:07:13;97491.63;;;-0.56;100.00
51261;BME280;61705;46.228;24.812;2024-01-25T04:09:40;97497.69;;;-0.58;100.00
51261;BME280;61705;46.228;24.812;2024-01-25T04:12:07;97495.97;;;-0.55;100.00
51261;BME280;61705;46.228;24.812;2024-01-25T04:14:33;97490.81;;;-0.58;100.00
51261;BME280;61705;46.228;24.812;2024-01-25T04:17:00;97496.84;;;-0.57;100.00
51261;BME280;61705;46.228;24.812;2024-01-25T04:19:28;97502.03;;;-0.54;100.00
51261;BME280;61705;46.228;24.812;2024-01-25T04:21:55;97505.47;;;-0.55;100.00
51261;BME280;61705;46.228;24.812;2024-01-25T04:24:22;97501.16;;;-0.53;100.00
51261;BME280;61705;46.228;24.812;2024-01-25T04:26:48;97496.00;;;-0.58;100.00
51261;BME280;61705;46.228;24.812;2024-01-25T04:29:15;97495.97;;;-0.56;100.00
51261;BME280;61705;46.228;24.812;2024-01-25T04:31:42;97495.97;;;-0.53;100.00
51261;BME280;61705;46.228;24.812;2024-01-25T04:34:10;97488.19;;;-0.55;100.00
51261;BME280;61705;46.228;24.812;2024-01-25T04:36:40;97491.63;;;-0.53;100.00
51261;BME280;61705;46.228;24.812;2024-01-25T04:39:07;97494.25;;;-0.57;100.00
51261;BME280;61705;46.228;24.812;2024-01-25T04:41:33;97492.53;;;-0.57;100.00
51261;BME280;61705;46.228;24.812;2024-01-25T04:44:00;97490.81;;;-0.58;100.00
51261;BME280;61705;46.228;24.812;2024-01-25T04:46:27;97489.94;;;-0.57;100.00
51261;BME280;61705;46.228;24.812;2024-01-25T04:48:56;97508.06;;;-0.55;100.00
51261;BME280;61705;46.228;24.812;2024-01-25T04:51:23;97507.22;;;-0.62;100.00
51261;BME280;61705;46.228;24.812;2024-01-25T04:53:49;97508.97;;;-0.61;100.00
51261;BME280;61705;46.228;24.812;2024-01-25T04:56:19;97507.22;;;-0.62;100.00
51261;BME280;61705;46.228;24.812;2024-01-25T04:58:46;97506.38;;;-0.59;100.00
51261;BME280;61705;46.228;24.812;2024-01-25T05:01:12;97510.72;;;-0.64;100.00
51261;BME280;61705;46.228;24.812;2024-01-25T05:03:39;97508.13;;;-0.66;100.00
51261;BME280;61705;46.228;24.812;2024-01-25T05:06:09;97503.81;;;-0.67;100.00
51261;BME280;61705;46.228;24.812;2024-01-25T05:08:42;97514.16;;;-0.68;100.00
51261;BME280;61705;46.228;24.812;2024-01-25T05:11:09;97508.13;;;-0.67;100.00
51261;BME280;61705;46.228;24.812;2024-01-25T05:13:38;97513.31;;;-0.66;100.00
51261;BME280;61705;46.228;24.812;2024-01-25T05:16:05;97503.78;;;-0.65;100.00
51261;BME280;61705;46.228;24.812;2024-01-25T05:18:32;97496.03;;;-0.70;100.00
51261;BME280;61705;46.228;24.812;2024-01-25T05:20:58;97517.63;;;-0.66;100.00
51261;BME280;61705;46.228;24.812;2024-01-25T05:23:25;97501.25;;;-0.75;100.00
51261;BME280;61705;46.228;24.812;2024-01-25T05:25:52;97511.63;;;-0.75;100.00
51261;BME280;61705;46.228;24.812;2024-01-25T05:28:21;97507.28;;;-0.71;100.00
51261;BME280;61705;46.228;24.812;2024-01-25T05:30:48;97510.69;;;-0.60;100.00
51261;BME280;61705;46.228;24.812;2024-01-25T05:33:16;97509.81;;;-0.59;100.00
51261;BME280;61705;46.228;24.812;2024-01-25T05:35:43;97504.66;;;-0.63;100.00
51261;BME280;61705;46.228;24.812;2024-01-25T05:38:10;97514.16;;;-0.59;100.00
51261;BME280;61705;46.228;24.812;2024-01-25T05:40:38;97508.09;;;-0.60;100.00
51261;BME280;61705;46.228;24.812;2024-01-25T05:43:05;97512.47;;;-0.65;100.00
51261;BME280;61705;46.228;24.812;2024-01-25T05:45:32;97518.47;;;-0.57;100.00
51261;BME280;61705;46.228;24.812;2024-01-25T05:48:01;97510.59;;;-0.41;100.00
51261;BME280;61705;46.228;24.812;2024-01-25T05:50:28;97518.38;;;-0.38;100.00
51261;BME280;61705;46.228;24.812;2024-01-25T05:52:55;97509.75;;;-0.42;100.00
51261;BME280;61705;46.228;24.812;2024-01-25T05:55:21;97511.47;;;-0.36;100.00
51261;BME280;61705;46.228;24.812;2024-01-25T05:57:48;97512.31;;;-0.33;100.00
51261;BME280;61705;46.228;24.812;2024-01-25T06:00:15;97507.94;;;-0.29;100.00
51261;BME280;61705;46.228;24.812;2024-01-25T06:02:46;97520.09;;;-0.33;100.00
51261;BME280;61705;46.228;24.812;2024-01-25T06:05:13;97501.06;;;-0.38;100.00
51261;BME280;61705;46.228;24.812;2024-01-25T06:07:40;97495.88;;;-0.36;100.00
51261;BME280;61705;46.228;24.812;2024-01-25T06:10:11;97496.69;;;-0.27;100.00
51261;BME280;61705;46.228;24.812;2024-01-25T06:12:38;97501.00;;;-0.26;100.00
51261;BME280;61705;46.228;24.812;2024-01-25T06:15:08;97500.13;;;-0.23;100.00
51261;BME280;61705;46.228;24.812;2024-01-25T06:17:35;97487.16;;;-0.25;100.00
51261;BME280;61705;46.228;24.812;2024-01-25T06:20:08;97497.53;;;-0.28;100.00
51261;BME280;61705;46.228;24.812;2024-01-25T06:22:43;97492.34;;;-0.23;100.00
51261;BME280;61705;46.228;24.812;2024-01-25T06:25:13;97492.34;;;-0.23;100.00
51261;BME280;61705;46.228;24.812;2024-01-25T06:27:43;97500.13;;;-0.21;100.00
51261;BME280;61705;46.228;24.812;2024-01-25T06:30:12;97495.78;;;-0.19;100.00
51261;BME280;61705;46.228;24.812;2024-01-25T06:32:39;97495.78;;;-0.21;100.00
51261;BME280;61705;46.228;24.812;2024-01-25T06:35:06;97495.78;;;-0.19;100.00
51261;BME280;61705;46.228;24.812;2024-01-25T06:37:34;97500.94;;;-0.12;100.00
51261;BME280;61705;46.228;24.812;2024-01-25T06:40:08;97498.34;;;-0.10;100.00
51261;BME280;61705;46.228;24.812;2024-01-25T06:42:39;97506.09;;;-0.06;100.00
51261;BME280;61705;46.228;24.812;2024-01-25T06:45:08;97497.41;;;0.00;100.00
51261;BME280;61705;46.228;24.812;2024-01-25T06:47:39;97498.28;;;-0.03;100.00
51261;BME280;61705;46.228;24.812;2024-01-25T06:50:08;97500.09;;;-0.17;100.00
51261;BME280;61705;46.228;24.812;2024-01-25T06:52:38;97503.53;;;-0.13;100.00
51261;BME280;61705;46.228;24.812;2024-01-25T06:55:05;97498.28;;;-0.04;100.00
51261;BME280;61705;46.228;24.812;2024-01-25T06:57:35;97500.88;;;-0.04;100.00
51261;BME280;61705;46.228;24.812;2024-01-25T07:00:04;97502.63;;;-0.06;100.00
51261;BME280;61705;46.228;24.812;2024-01-25T07:02:34;97514.72;;;-0.04;100.00
51261;BME280;61705;46.228;24.812;2024-01-25T07:05:01;97516.44;;;-0.01;100.00
51261;BME280;61705;46.228;24.812;2024-01-25T07:07:37;97513.84;;;0.04;100.00
51261;BME280;61705;46.228;24.812;2024-01-25T07:10:08;97502.53;;;0.09;100.00
51261;BME280;61705;46.228;24.812;2024-01-25T07:12:34;97500.78;;;0.07;100.00
51261;BME280;61705;46.228;24.812;2024-01-25T07:15:02;97504.25;;;0.09;100.00
51261;BME280;61705;46.228;24.812;2024-01-25T07:17:31;97502.47;;;0.17;100.00
51261;BME280;61705;46.228;24.812;2024-01-25T07:19:57;97504.19;;;0.19;100.00
51261;BME280;61705;46.228;24.812;2024-01-25T07:22:24;97503.34;;;0.17;100.00
51261;BME280;61705;46.228;24.812;2024-01-25T07:24:51;97505.88;;;0.25;100.00
51261;BME280;61705;46.228;24.812;2024-01-25T07:27:18;97500.75;;;0.13;100.00
51261;BME280;61705;46.228;24.812;2024-01-25T07:29:45;97500.84;;;0.04;100.00
51261;BME280;61705;46.228;24.812;2024-01-25T07:32:12;97508.59;;;0.07;100.00
51261;BME280;61705;46.228;24.812;2024-01-25T07:34:39;97512.94;;;0.05;100.00
51261;BME280;61705;46.228;24.812;2024-01-25T07:37:06;97498.19;;;0.07;100.00
51261;BME280;61705;46.228;24.812;2024-01-25T07:39:32;97498.25;;;0.04;100.00
51261;BME280;61705;46.228;24.812;2024-01-25T07:41:59;97508.63;;;0.02;100.00
51261;BME280;61705;46.228;24.812;2024-01-25T07:44:26;97499.13;;;-0.01;100.00
51261;BME280;61705;46.228;24.812;2024-01-25T07:46:53;97506.91;;;0.01;100.00
51261;BME280;61705;46.228;24.812;2024-01-25T07:49:19;97512.13;;;0.01;100.00
51261;BME280;61705;46.228;24.812;2024-01-25T07:51:46;97510.38;;;0.02;100.00
51261;BME280;61705;46.228;24.812;2024-01-25T07:54:14;97514.69;;;0.04;100.00
51261;BME280;61705;46.228;24.812;2024-01-25T07:56:40;97515.53;;;0.03;100.00
51261;BME280;61705;46.228;24.812;2024-01-25T07:59:07;97517.22;;;0.10;100.00
51261;BME280;61705;46.228;24.812;2024-01-25T08:01:34;97517.22;;;0.15;100.00
51261;BME280;61705;46.228;24.812;2024-01-25T08:04:00;97533.69;;;0.14;100.00
51261;BME280;61705;46.228;24.812;2024-01-25T08:06:27;97534.53;;;0.13;100.00
51261;BME280;61705;46.228;24.812;2024-01-25T08:08:54;97542.28;;;0.19;100.00
51261;BME280;61705;46.228;24.812;2024-01-25T08:11:21;97533.59;;;0.26;100.00
51261;BME280;61705;46.228;24.812;2024-01-25T08:13:50;97530.09;;;0.29;100.00
51261;BME280;61705;46.228;24.812;2024-01-25T08:16:17;97529.22;;;0.34;100.00
51261;BME280;61705;46.228;24.812;2024-01-25T08:18:47;97522.19;;;0.42;100.00
51261;BME280;61705;46.228;24.812;2024-01-25T08:21:14;97529.13;;;0.45;100.00
51261;BME280;61705;46.228;24.812;2024-01-25T08:23:41;97531.63;;;0.54;100.00
51261;BME280;61705;46.228;24.812;2024-01-25T08:26:08;97530.66;;;0.67;100.00
51261;BME280;61705;46.228;24.812;2024-01-25T08:28:39;97537.53;;;0.76;100.00
51261;BME280;61705;46.228;24.812;2024-01-25T08:31:06;97534.91;;;0.78;100.00
51261;BME280;61705;46.228;24.812;2024-01-25T08:33:33;97525.38;;;0.75;100.00
51261;BME280;61705;46.228;24.812;2024-01-25T08:36:00;97539.19;;;0.82;100.00
51261;BME280;61705;46.228;24.812;2024-01-25T08:38:27;97517.44;;;0.89;100.00
51261;BME280;61705;46.228;24.812;2024-01-25T08:40:53;97540.78;;;0.98;100.00
51261;BME280;61705;46.228;24.812;2024-01-25T08:43:20;97535.47;;;1.10;100.00
51261;BME280;61705;46.228;24.812;2024-01-25T08:45:47;97533.63;;;1.20;100.00
51261;BME280;61705;46.228;24.812;2024-01-25T08:48:14;97529.19;;;1.28;100.00
51261;BME280;61705;46.228;24.812;2024-01-25T08:50:43;97534.41;;;1.28;100.00
51261;BME280;61705;46.228;24.812;2024-01-25T08:53:10;97539.50;;;1.36;100.00
51261;BME280;61705;46.228;24.812;2024-01-25T08:55:37;97533.34;;;1.43;100.00
51261;BME280;61705;46.228;24.812;2024-01-25T08:58:04;97532.50;;;1.42;100.00
51261;BME280;61705;46.228;24.812;2024-01-25T09:00:30;97530.69;;;1.49;100.00
51261;BME280;61705;46.228;24.812;2024-01-25T09:02:57;97531.53;;;1.51;100.00
51261;BME280;61705;46.228;24.812;2024-01-25T09:05:24;97528.88;;;1.56;100.00
51261;BME280;61705;46.228;24.812;2024-01-25T09:07:54;97533.97;;;1.65;100.00
51261;BME280;61705;46.228;24.812;2024-01-25T09:10:21;97528.63;;;1.74;100.00
51261;BME280;61705;46.228;24.812;2024-01-25T09:12:48;97522.44;;;1.83;100.00
51261;BME280;61705;46.228;24.812;2024-01-25T09:15:15;97512.88;;;1.83;100.00
51261;BME280;61705;46.228;24.812;2024-01-25T09:17:42;97518.91;;;1.87;100.00
51261;BME280;61705;46.228;24.812;2024-01-25T09:20:10;57215.63;;;-144.75;100.00
51261;BME280;61705;46.228;24.812;2024-01-25T09:22:37;57215.63;;;-144.75;100.00
51261;BME280;61705;46.228;24.812;2024-01-25T09:25:04;57215.63;;;-144.75;100.00
51261;BME280;61705;46.228;24.812;2024-01-25T09:27:34;57215.63;;;-144.75;100.00
51261;BME280;61705;46.228;24.812;2024-01-25T09:30:01;57215.63;;;-144.75;100.00
51261;BME280;61705;46.228;24.812;2024-01-25T09:32:28;57215.63;;;-144.75;100.00
51261;BME280;61705;46.228;24.812;2024-01-25T09:34:54;57215.63;;;-144.75;100.00
51261;BME280;61705;46.228;24.812;2024-01-25T09:37:22;57215.63;;;-144.75;100.00
51261;BME280;61705;46.228;24.812;2024-01-25T09:39:51;57215.63;;;-144.75;100.00
51261;BME280;61705;46.228;24.812;2024-01-25T09:42:20;57215.63;;;-144.75;100.00
51261;BME280;61705;46.228;24.812;2024-01-25T09:44:46;57215.63;;;-144.75;100.00
51261;BME280;61705;46.228;24.812;2024-01-25T09:47:13;57215.63;;;-144.75;100.00
51261;BME280;61705;46.228;24.812;2024-01-25T09:49:41;57215.63;;;-144.75;100.00
51261;BME280;61705;46.228;24.812;2024-01-25T09:52:08;57215.63;;;-144.75;100.00
51261;BME280;61705;46.228;24.812;2024-01-25T09:54:38;57215.63;;;-144.75;100.00
51261;BME280;61705;46.228;24.812;2024-01-25T09:57:07;57215.63;;;-144.75;100.00
51261;BME280;61705;46.228;24.812;2024-01-25T09:59:35;57215.63;;;-144.75;100.00
51261;BME280;61705;46.228;24.812;2024-01-25T10:02:01;57215.63;;;-144.75;100.00
51261;BME280;61705;46.228;24.812;2024-01-25T10:04:30;57215.63;;;-144.75;100.00
51261;BME280;61705;46.228;24.812;2024-01-25T10:06:58;57215.63;;;-144.75;100.00
51261;BME280;61705;46.228;24.812;2024-01-25T10:09:25;57215.63;;;-144.75;100.00
51261;BME280;61705;46.228;24.812;2024-01-25T10:11:51;57215.63;;;-144.75;100.00
51261;BME280;61705;46.228;24.812;2024-01-25T10:14:35;57215.63;;;-144.75;100.00
51261;BME280;61705;46.228;24.812;2024-01-25T10:17:02;57215.63;;;-144.75;100.00
51261;BME280;61705;46.228;24.812;2024-01-25T10:19:29;57215.63;;;-144.75;100.00
51261;BME280;61705;46.228;24.812;2024-01-25T10:21:56;57215.63;;;-144.75;100.00
51261;BME280;61705;46.228;24.812;2024-01-25T10:24:24;57215.63;;;-144.75;100.00
51261;BME280;61705;46.228;24.812;2024-01-25T10:26:51;57215.63;;;-144.75;100.00
51261;BME280;61705;46.228;24.812;2024-01-25T10:29:18;57215.63;;;-144.75;100.00
51261;BME280;61705;46.228;24.812;2024-01-25T10:31:45;57215.63;;;-144.75;100.00
51261;BME280;61705;46.228;24.812;2024-01-25T10:34:13;57215.63;;;-144.75;100.00
51261;BME280;61705;46.228;24.812;2024-01-25T10:36:40;57215.63;;;-144.75;100.00
51261;BME280;61705;46.228;24.812;2024-01-25T10:39:07;57215.63;;;-144.75;100.00
51261;BME280;61705;46.228;24.812;2024-01-25T10:41:35;57215.63;;;-144.75;100.00
51261;BME280;61705;46.228;24.812;2024-01-25T10:44:02;57215.63;;;-144.75;100.00
51261;BME280;61705;46.228;24.812;2024-01-25T10:46:29;57215.63;;;-144.75;100.00
51261;BME280;61705;46.228;24.812;2024-01-25T10:48:57;57215.63;;;-144.75;100.00
51261;BME280;61705;46.228;24.812;2024-01-25T10:51:28;57215.63;;;-144.75;100.00
51261;BME280;61705;46.228;24.812;2024-01-25T10:53:56;57215.63;;;-144.75;100.00
51261;BME280;61705;46.228;24.812;2024-01-25T10:56:24;57215.63;;;-144.75;100.00
51261;BME280;61705;46.228;24.812;2024-01-25T10:58:54;57215.63;;;-144.75;100.00
51261;BME280;61705;46.228;24.812;2024-01-25T11:01:20;57215.63;;;-144.75;100.00
51261;BME280;61705;46.228;24.812;2024-01-25T11:03:49;57215.63;;;-144.75;100.00
51261;BME280;61705;46.228;24.812;2024-01-25T11:06:18;57215.63;;;-144.75;100.00
51261;BME280;61705;46.228;24.812;2024-01-25T11:08:46;57215.63;;;-144.75;100.00
51261;BME280;61705;46.228;24.812;2024-01-25T11:11:14;57215.63;;;-144.75;100.00
51261;BME280;61705;46.228;24.812;2024-01-25T11:13:41;57215.63;;;-144.75;100.00
51261;BME280;61705;46.228;24.812;2024-01-25T11:18:52;57215.63;;;-144.75;100.00
51261;BME280;61705;46.228;24.812;2024-01-25T11:21:37;57215.63;;;-144.75;100.00
51261;BME280;61705;46.228;24.812;2024-01-25T11:24:04;57215.63;;;-144.75;100.00
51261;BME280;61705;46.228;24.812;2024-01-25T11:26:34;57215.63;;;-144.75;100.00
51261;BME280;61705;46.228;24.812;2024-01-25T11:29:03;57215.63;;;-144.75;100.00
51261;BME280;61705;46.228;24.812;2024-01-25T11:31:29;57215.63;;;-144.75;100.00
51261;BME280;61705;46.228;24.812;2024-01-25T11:34:00;57215.63;;;-144.75;100.00
51261;BME280;61705;46.228;24.812;2024-01-25T11:36:28;57215.63;;;-144.75;100.00
51261;BME280;61705;46.228;24.812;2024-01-25T11:38:55;57215.63;;;-144.75;100.00
51261;BME280;61705;46.228;24.812;2024-01-25T11:41:21;57215.63;;;-144.75;100.00
51261;BME280;61705;46.228;24.812;2024-01-25T11:43:48;57215.63;;;-144.75;100.00
51261;BME280;61705;46.228;24.812;2024-01-25T11:46:15;57215.63;;;-144.75;100.00
51261;BME280;61705;46.228;24.812;2024-01-25T11:48:43;57215.63;;;-144.75;100.00
51261;BME280;61705;46.228;24.812;2024-01-25T11:51:10;57215.63;;;-144.75;100.00
51261;BME280;61705;46.228;24.812;2024-01-25T11:53:39;57215.63;;;-144.75;100.00
51261;BME280;61705;46.228;24.812;2024-01-25T11:56:07;57215.63;;;-144.75;100.00
51261;BME280;61705;46.228;24.812;2024-01-25T11:58:36;57215.63;;;-144.75;100.00
51261;BME280;61705;46.228;24.812;2024-01-25T12:01:07;57215.63;;;-144.75;100.00
51261;BME280;61705;46.228;24.812;2024-01-25T12:03:34;57215.63;;;-144.75;100.00
51261;BME280;61705;46.228;24.812;2024-01-25T12:06:06;57215.63;;;-144.75;100.00
51261;BME280;61705;46.228;24.812;2024-01-25T12:08:35;57215.63;;;-144.75;100.00
51261;BME280;61705;46.228;24.812;2024-01-25T12:11:03;57215.63;;;-144.75;100.00
51261;BME280;61705;46.228;24.812;2024-01-25T12:13:39;57215.63;;;-144.75;100.00
51261;BME280;61705;46.228;24.812;2024-01-25T12:16:06;57215.63;;;-144.75;100.00
51261;BME280;61705;46.228;24.812;2024-01-25T12:18:34;57215.63;;;-144.75;100.00
51261;BME280;61705;46.228;24.812;2024-01-25T12:21:04;57215.63;;;-144.75;100.00
51261;BME280;61705;46.228;24.812;2024-01-25T12:23:36;57215.63;;;-144.75;100.00
51261;BME280;61705;46.228;24.812;2024-01-25T12:26:15;57215.63;;;-144.75;100.00
51261;BME280;61705;46.228;24.812;2024-01-25T12:28:42;57215.63;;;-144.75;100.00
51261;BME280;61705;46.228;24.812;2024-01-25T12:31:09;57215.63;;;-144.75;100.00
51261;BME280;61705;46.228;24.812;2024-01-25T12:33:37;57215.63;;;-144.75;100.00
51261;BME280;61705;46.228;24.812;2024-01-25T12:36:04;57215.63;;;-144.75;100.00
51261;BME280;61705;46.228;24.812;2024-01-25T12:38:31;57215.63;;;-144.75;100.00
51261;BME280;61705;46.228;24.812;2024-01-25T12:41:01;57215.63;;;-144.75;100.00